createdAt,value
2023-05-19T00:01:25.091Z,101103.84
2023-05-19T00:03:55.146Z,101143.62
2023-05-19T00:06:27.534Z,101146.25
2023-05-19T00:09:09.422Z,101149.72
2023-05-19T00:11:39.194Z,101147.22
2023-05-19T00:14:09.523Z,101144.16
2023-05-19T00:16:38.127Z,101153.34
2023-05-19T00:19:06.701Z,101148.47
2023-05-19T00:21:34.466Z,101102.97
2023-05-19T00:24:01.965Z,101141.50
2023-05-19T00:26:29.586Z,101139.69
2023-05-19T00:28:58.933Z,101127.84
2023-05-19T00:31:26.545Z,101136.44
2023-05-19T00:33:54.106Z,101137.97
2023-05-19T00:36:21.935Z,101144.91
2023-05-19T00:38:51.368Z,101138.50
2023-05-19T00:41:18.919Z,101146.41
2023-05-19T00:43:46.793Z,101143.19
2023-05-19T00:46:14.310Z,101149.31
2023-05-19T00:48:44.753Z,101147.19
2023-05-19T00:51:16.849Z,101146.38
2023-05-19T00:53:49.317Z,101147.34
2023-05-19T00:56:18.467Z,101139.97
2023-05-19T00:58:46.692Z,101094.56
2023-05-19T01:01:17.231Z,101137.59
2023-05-19T01:03:47.217Z,101140.62
2023-05-19T01:06:15.347Z,101147.81
2023-05-19T01:08:42.853Z,101152.97
2023-05-19T01:11:10.872Z,101149.75
2023-05-19T01:13:41.115Z,101142.09
2023-05-19T01:16:18.976Z,101139.63
2023-05-19T01:19:06.056Z,101141.69
2023-05-19T01:22:01.182Z,101143.62
2023-05-19T01:24:32.408Z,101135.72
2023-05-19T01:27:32.178Z,101141.50
2023-05-19T01:30:23.354Z,101140.66
2023-05-19T01:32:53.960Z,101095.66
2023-05-19T01:35:26.294Z,101142.72
2023-05-19T01:37:56.744Z,101143.81
2023-05-19T01:40:26.477Z,101142.34
2023-05-19T01:42:57.824Z,101151.25
2023-05-19T01:45:29.094Z,101111.28
2023-05-19T01:47:59.435Z,101150.91
2023-05-19T01:50:27.623Z,101159.78
2023-05-19T01:52:55.711Z,101152.84
2023-05-19T01:55:24.107Z,101143.34
2023-05-19T01:58:33.035Z,101140.62
2023-05-19T02:01:42.900Z,101129.97
2023-05-19T02:04:28.552Z,101133.44
2023-05-19T02:07:10.004Z,101136.16
2023-05-19T02:10:06.665Z,101125.72
2023-05-19T02:12:40.166Z,101130.88
2023-05-19T02:15:12.180Z,101137.34
2023-05-19T02:17:47.893Z,101120.25
2023-05-19T02:20:16.988Z,101132.00
2023-05-19T02:22:45.379Z,101135.16
2023-05-19T02:25:14.235Z,101127.63
2023-05-19T02:27:42.492Z,101129.41
2023-05-19T02:30:10.693Z,101101.59
2023-05-19T02:32:38.281Z,101117.47
2023-05-19T02:35:06.451Z,101129.66
2023-05-19T02:37:35.398Z,101123.00
2023-05-19T02:40:02.984Z,101130.44
2023-05-19T02:42:31.443Z,101129.25
2023-05-19T02:45:00.564Z,101130.69
2023-05-19T02:47:28.305Z,101133.78
2023-05-19T02:49:55.936Z,101124.13
2023-05-19T02:52:23.707Z,101127.59
2023-05-19T02:54:51.484Z,101124.03
2023-05-19T02:57:19.091Z,101132.31
2023-05-19T02:59:47.056Z,101126.91
2023-05-19T03:02:14.607Z,101129.91
2023-05-19T03:04:43.140Z,101136.84
2023-05-19T03:07:11.026Z,101132.56
2023-05-19T03:09:38.582Z,101136.50
2023-05-19T03:12:07.682Z,101130.72
2023-05-19T03:14:37.743Z,101141.25
2023-05-19T03:17:07.848Z,101137.22
2023-05-19T03:19:36.144Z,101125.84
2023-05-19T03:22:03.956Z,101122.13
2023-05-19T03:24:31.681Z,101127.28
2023-05-19T03:26:59.531Z,101128.84
2023-05-19T03:29:27.114Z,101133.00
2023-05-19T03:31:55.176Z,101126.19
2023-05-19T03:34:23.017Z,101124.41
2023-05-19T03:36:50.956Z,101126.91
2023-05-19T03:39:18.552Z,101142.59
2023-05-19T03:41:46.535Z,101138.97
2023-05-19T03:44:14.123Z,101129.28
2023-05-19T03:46:41.658Z,101134.41
2023-05-19T03:49:09.937Z,101135.50
2023-05-19T03:51:39.413Z,101135.25
2023-05-19T03:54:07.295Z,101116.16
2023-05-19T03:56:39.406Z,101137.53
2023-05-19T03:59:10.488Z,101133.84
2023-05-19T04:01:38.305Z,101143.62
2023-05-19T04:04:06.181Z,101126.78
2023-05-19T04:06:34.002Z,101146.03
2023-05-19T04:09:02.711Z,101146.75
2023-05-19T04:11:30.559Z,101102.41
2023-05-19T04:13:58.689Z,101147.28
2023-05-19T04:16:26.430Z,101150.28
2023-05-19T04:18:54.365Z,101144.66
2023-05-19T04:21:22.465Z,101142.88
2023-05-19T04:23:50.024Z,101104.41
2023-05-19T04:26:19.307Z,101145.75
2023-05-19T04:28:48.313Z,101154.03
2023-05-19T04:31:15.871Z,101155.13
2023-05-19T04:33:43.960Z,101157.06
2023-05-19T04:36:11.791Z,101141.53
2023-05-19T04:38:40.303Z,101158.13
2023-05-19T04:41:12.269Z,101149.44
2023-05-19T04:43:41.837Z,101157.28
2023-05-19T04:46:14.163Z,101159.78
2023-05-19T04:48:42.821Z,101148.41
2023-05-19T04:51:10.668Z,101156.91
2023-05-19T04:53:40.263Z,101159.22
2023-05-19T04:56:09.722Z,101149.19
2023-05-19T04:58:39.705Z,101143.06
2023-05-19T05:01:09.686Z,101145.87
2023-05-19T05:03:37.889Z,101146.84
2023-05-19T05:06:06.578Z,101152.78
2023-05-19T05:08:34.255Z,101152.91
2023-05-19T05:11:02.287Z,101156.06
2023-05-19T05:13:30.083Z,101167.47
2023-05-19T05:15:58.812Z,101172.56
2023-05-19T05:18:27.186Z,101182.50
2023-05-19T05:20:55.215Z,101185.00
2023-05-19T05:23:23.551Z,101183.72
2023-05-19T05:25:51.935Z,101166.81
2023-05-19T05:28:19.611Z,101168.56
2023-05-19T05:30:47.587Z,101178.66
2023-05-19T05:33:15.547Z,101177.44
2023-05-19T05:35:43.074Z,101185.72
2023-05-19T05:38:11.601Z,101196.44
2023-05-19T05:40:39.645Z,101203.16
2023-05-19T05:43:08.212Z,101197.81
2023-05-19T05:45:36.065Z,101199.19
2023-05-19T05:48:04.741Z,101192.56
2023-05-19T05:50:32.866Z,101202.94
2023-05-19T05:53:01.915Z,101197.06
2023-05-19T05:55:30.515Z,101198.00
2023-05-19T05:58:02.197Z,101204.78
2023-05-19T06:00:30.444Z,101216.78
2023-05-19T06:02:59.276Z,101210.41
2023-05-19T06:05:27.161Z,101221.84
2023-05-19T06:07:55.404Z,101186.75
2023-05-19T06:10:23.853Z,101178.84
2023-05-19T06:12:51.877Z,101186.63
2023-05-19T06:15:19.400Z,101228.84
2023-05-19T06:17:47.333Z,101230.47
2023-05-19T06:20:14.997Z,101234.09
2023-05-19T06:22:42.616Z,101234.13
2023-05-19T06:25:10.563Z,101193.88
2023-05-19T06:27:38.143Z,101237.59
2023-05-19T06:30:08.624Z,101236.31
2023-05-19T06:32:36.998Z,101237.72
2023-05-19T06:35:05.087Z,101236.38
2023-05-19T06:37:32.722Z,101230.94
2023-05-19T06:40:00.719Z,101193.25
2023-05-19T06:42:28.336Z,101235.53
2023-05-19T06:44:57.716Z,101229.84
2023-05-19T06:47:27.530Z,101241.28
2023-05-19T06:49:55.654Z,101234.63
2023-05-19T06:52:23.843Z,101231.34
2023-05-19T06:54:51.805Z,101239.47
2023-05-19T06:57:19.328Z,101232.53
2023-05-19T06:59:46.914Z,101235.91
2023-05-19T07:02:15.169Z,101251.13
2023-05-19T07:04:43.224Z,101262.91
2023-05-19T07:07:12.258Z,101254.75
2023-05-19T07:09:40.235Z,101218.06
2023-05-19T07:12:08.683Z,101249.03
2023-05-19T07:14:37.484Z,101252.34
2023-05-19T07:17:05.455Z,101256.66
2023-05-19T07:19:33.064Z,101248.56
2023-05-19T07:22:00.811Z,101234.94
2023-05-19T07:24:28.624Z,101245.91
2023-05-19T07:26:57.416Z,101244.31
2023-05-19T07:29:26.255Z,101250.47
2023-05-19T07:31:57.870Z,101242.72
2023-05-19T07:34:25.753Z,101249.09
2023-05-19T07:36:53.380Z,101231.50
2023-05-19T07:39:21.372Z,101247.37
2023-05-19T07:41:52.815Z,101243.03
2023-05-19T07:44:20.852Z,101234.78
2023-05-19T07:46:48.410Z,101231.22
2023-05-19T07:49:15.874Z,101238.28
2023-05-19T07:51:43.666Z,101222.69
2023-05-19T07:54:11.255Z,101225.97
2023-05-19T07:56:38.811Z,101215.06
2023-05-19T07:59:08.015Z,101219.38
2023-05-19T08:01:35.762Z,101174.34
2023-05-19T08:04:04.224Z,101205.28
2023-05-19T08:06:32.113Z,101212.69
2023-05-19T08:08:59.706Z,101172.00
2023-05-19T08:11:27.651Z,101211.34
2023-05-19T08:13:55.187Z,101220.41
2023-05-19T08:16:22.875Z,101217.81
2023-05-19T08:18:50.730Z,101211.84
2023-05-19T08:21:18.340Z,101212.78
2023-05-19T08:23:45.842Z,101222.34
2023-05-19T08:26:13.865Z,101222.91
2023-05-19T08:28:41.436Z,101217.78
2023-05-19T08:31:09.136Z,101220.44
2023-05-19T08:33:37.010Z,101216.97
2023-05-19T08:36:05.066Z,101212.41
2023-05-19T08:38:32.639Z,101217.47
2023-05-19T08:41:00.520Z,101203.50
2023-05-19T08:43:28.242Z,101202.16
2023-05-19T08:45:55.941Z,101200.59
2023-05-19T08:48:24.120Z,101172.87
2023-05-19T08:51:18.049Z,101199.31
2023-05-19T08:53:51.126Z,101197.03
2023-05-19T08:56:22.631Z,101190.88
2023-05-19T08:58:51.588Z,101202.84
2023-05-19T09:01:20.459Z,101192.75
2023-05-19T09:03:50.034Z,101201.75
2023-05-19T09:06:18.225Z,101202.50
2023-05-19T09:08:47.098Z,101199.91
2023-05-19T09:11:14.813Z,101213.97
2023-05-19T09:13:42.602Z,101202.25
2023-05-19T09:16:11.836Z,101206.19
2023-05-19T09:18:40.999Z,101200.19
2023-05-19T09:21:11.179Z,101198.47
2023-05-19T09:23:38.796Z,101194.31
2023-05-19T09:26:07.703Z,101190.94
2023-05-19T09:28:38.021Z,101192.91
2023-05-19T09:31:10.913Z,101159.66
2023-05-19T09:33:42.845Z,101201.34
2023-05-19T09:36:12.589Z,101151.19
2023-05-19T09:38:40.652Z,101191.88
2023-05-19T09:41:09.280Z,101191.62
2023-05-19T09:43:36.944Z,101190.72
2023-05-19T09:46:12.162Z,101186.94
2023-05-19T09:48:42.554Z,101175.25
2023-05-19T09:51:11.027Z,101180.78
2023-05-19T09:53:39.166Z,101145.50
2023-05-19T09:56:08.838Z,101139.81
2023-05-19T09:58:37.519Z,101170.19
2023-05-19T10:01:05.708Z,101168.91
2023-05-19T10:03:34.243Z,101172.16
2023-05-19T10:06:04.045Z,101137.78
2023-05-19T10:08:33.591Z,101166.91
2023-05-19T10:11:01.921Z,101158.38
2023-05-19T10:13:30.751Z,101160.25
2023-05-19T10:16:00.039Z,101161.25
2023-05-19T10:18:29.672Z,101155.19
2023-05-19T10:20:58.278Z,101152.34
2023-05-19T10:23:26.914Z,101150.31
2023-05-19T10:25:59.098Z,101143.31
2023-05-19T10:28:33.666Z,101144.16
2023-05-19T10:31:05.071Z,101143.94
2023-05-19T10:33:59.664Z,101146.25
2023-05-19T10:36:31.094Z,101143.03
2023-05-19T10:39:16.697Z,101138.34
2023-05-19T10:42:03.759Z,101136.72
2023-05-19T10:44:34.200Z,101147.38
2023-05-19T10:47:02.369Z,101141.63
2023-05-19T10:49:35.817Z,101145.72
2023-05-19T10:52:04.302Z,101140.59
2023-05-19T10:54:47.395Z,101134.47
2023-05-19T10:57:19.238Z,101135.09
2023-05-19T10:59:47.293Z,101132.37
2023-05-19T11:02:42.428Z,101136.53
2023-05-19T11:05:20.401Z,101135.91
2023-05-19T11:08:06.166Z,101116.94
2023-05-19T11:10:34.197Z,101119.69
2023-05-19T11:13:06.135Z,101079.62
2023-05-19T11:15:39.947Z,101113.22
2023-05-19T11:18:07.964Z,101113.66
2023-05-19T11:20:39.191Z,101105.13
2023-05-19T11:23:08.894Z,101107.97
2023-05-19T11:25:44.874Z,101105.00
2023-05-19T11:28:13.689Z,101104.78
2023-05-19T11:30:43.704Z,101103.69
2023-05-19T11:33:13.503Z,101105.25
2023-05-19T11:35:42.852Z,101105.75
2023-05-19T11:38:11.308Z,101093.75
2023-05-19T11:40:39.360Z,101101.37
2023-05-19T11:43:07.322Z,101097.47
2023-05-19T11:45:35.341Z,101098.81
2023-05-19T11:48:03.873Z,101076.16
2023-05-19T11:50:32.769Z,101091.28
2023-05-19T11:53:01.382Z,101086.97
2023-05-19T11:55:29.647Z,101087.56
2023-05-19T11:58:05.105Z,101084.16
2023-05-19T12:00:41.649Z,101079.28
2023-05-19T12:03:10.565Z,101082.41
2023-05-19T12:05:44.919Z,101046.78
2023-05-19T12:08:13.070Z,101084.31
2023-05-19T12:10:41.096Z,101090.06
2023-05-19T12:13:09.992Z,101079.34
2023-05-19T12:15:39.134Z,101077.78
2023-05-19T12:18:07.378Z,101080.03
2023-05-19T12:20:36.161Z,101070.47
2023-05-19T12:23:05.152Z,101039.31
2023-05-19T12:25:33.149Z,101065.28
2023-05-19T12:28:05.111Z,101024.22
2023-05-19T12:30:34.709Z,101053.56
2023-05-19T12:33:03.185Z,101052.50
2023-05-19T12:35:36.321Z,101042.28
2023-05-19T12:38:05.128Z,101041.44
2023-05-19T12:40:36.623Z,101046.63
2023-05-19T12:43:05.460Z,101042.34
2023-05-19T12:45:37.295Z,101045.50
2023-05-19T12:48:06.740Z,101022.12
2023-05-19T12:50:35.024Z,101026.94
2023-05-19T12:53:02.933Z,101026.19
2023-05-19T12:55:30.838Z,101024.94
2023-05-19T12:57:58.703Z,101015.47
2023-05-19T13:00:28.970Z,101019.13
2023-05-19T13:03:05.830Z,101003.50
2023-05-19T13:05:37.187Z,101017.09
2023-05-19T13:08:09.858Z,100983.00
2023-05-19T13:10:39.004Z,101011.31
2023-05-19T13:13:07.774Z,101012.31
2023-05-19T13:15:38.730Z,101000.28
2023-05-19T13:18:09.120Z,101002.00
2023-05-19T13:20:38.854Z,100994.34
2023-05-19T13:23:06.840Z,101014.41
2023-05-19T13:25:34.611Z,101003.22
2023-05-19T13:28:05.676Z,101002.63
2023-05-19T13:30:38.620Z,101015.22
2023-05-19T13:33:06.776Z,101006.19
2023-05-19T13:35:37.598Z,101007.38
2023-05-19T13:38:12.576Z,101017.72
2023-05-19T13:40:40.644Z,101007.19
2023-05-19T13:43:09.080Z,100973.72
2023-05-19T13:45:36.987Z,101013.91
2023-05-19T13:48:06.937Z,101007.69
2023-05-19T13:50:34.747Z,101007.38
2023-05-19T13:53:02.298Z,101011.78
2023-05-19T13:55:29.867Z,101023.16
2023-05-19T13:57:58.190Z,101020.31
2023-05-19T14:00:25.892Z,100992.72
2023-05-19T14:02:53.703Z,101011.03
2023-05-19T14:05:21.323Z,101006.37
2023-05-19T14:07:48.824Z,101015.41
2023-05-19T14:10:16.640Z,100985.44
2023-05-19T14:13:02.419Z,101012.03
2023-05-19T14:15:37.831Z,101014.47
2023-05-19T14:18:06.855Z,101019.53
2023-05-19T14:20:35.165Z,101019.63
2023-05-19T14:23:03.096Z,101020.81
2023-05-19T14:25:30.737Z,101016.69
2023-05-19T14:27:58.608Z,101009.25
2023-05-19T14:30:26.153Z,101005.50
2023-05-19T14:32:53.892Z,101000.63
2023-05-19T14:35:22.743Z,100996.37
2023-05-19T14:37:51.257Z,100992.00
2023-05-19T14:40:19.016Z,100997.34
2023-05-19T14:42:46.819Z,100960.06
2023-05-19T14:45:15.049Z,100987.22
2023-05-19T14:47:42.608Z,100990.38
2023-05-19T14:50:11.522Z,100989.25
2023-05-19T14:52:39.181Z,100991.50
2023-05-19T14:55:07.156Z,100986.28
2023-05-19T14:57:34.913Z,100983.34
2023-05-19T15:00:02.405Z,100987.91
2023-05-19T15:02:30.162Z,100980.41
2023-05-19T15:04:58.000Z,100985.03
2023-05-19T15:07:25.502Z,100957.84
2023-05-19T15:09:53.559Z,100986.16
2023-05-19T15:12:21.333Z,100940.09
2023-05-19T15:14:48.822Z,100941.91
2023-05-19T15:17:16.434Z,100969.31
2023-05-19T15:19:44.553Z,100955.16
2023-05-19T15:22:12.071Z,100960.62
2023-05-19T15:24:41.188Z,100964.97
2023-05-19T15:27:09.180Z,100965.19
2023-05-19T15:29:36.858Z,100968.87
2023-05-19T15:32:04.788Z,100966.28
2023-05-19T15:34:32.837Z,100965.03
2023-05-19T15:37:00.440Z,100970.62
2023-05-19T15:39:30.406Z,100971.47
2023-05-19T15:41:58.095Z,100971.38
2023-05-19T15:44:28.232Z,100960.44
2023-05-19T15:46:56.439Z,100978.53
2023-05-19T15:49:25.287Z,100942.31
2023-05-19T15:51:52.773Z,100981.38
2023-05-19T15:54:20.460Z,100989.66
2023-05-19T15:56:48.222Z,100951.63
2023-05-19T15:59:15.823Z,100979.06
2023-05-19T16:01:43.368Z,100976.16
2023-05-19T16:04:11.273Z,100983.59
2023-05-19T16:06:38.930Z,100992.00
2023-05-19T16:09:06.397Z,100999.69
2023-05-19T16:11:34.302Z,101000.16
2023-05-19T16:14:01.746Z,101008.72
2023-05-19T16:16:29.305Z,101000.53
2023-05-19T16:18:57.103Z,101017.84
2023-05-19T16:21:24.605Z,100980.69
2023-05-19T16:23:52.190Z,101002.81
2023-05-19T16:26:20.214Z,100999.87
2023-05-19T16:28:47.789Z,101009.31
2023-05-19T16:31:15.274Z,101001.56
2023-05-19T16:33:43.052Z,100961.94
2023-05-19T16:36:10.856Z,100994.69
2023-05-19T16:38:38.326Z,100946.75
2023-05-19T16:41:06.944Z,100978.25
2023-05-19T16:43:35.967Z,100975.75
2023-05-19T16:46:04.610Z,100971.31
2023-05-19T16:48:32.468Z,100974.31
2023-05-19T16:51:00.044Z,100962.75
2023-05-19T16:53:27.683Z,100966.88
2023-05-19T16:55:55.565Z,100967.72
2023-05-19T16:58:23.064Z,100966.50
2023-05-19T17:00:53.408Z,100962.84
2023-05-19T17:03:21.403Z,100960.38
2023-05-19T17:05:48.925Z,100969.44
2023-05-19T17:08:16.644Z,100962.78
2023-05-19T17:10:44.923Z,100962.34
2023-05-19T17:13:12.939Z,100960.59
2023-05-19T17:15:42.863Z,100955.97
2023-05-19T17:18:12.687Z,100956.25
2023-05-19T17:20:40.342Z,100955.44
2023-05-19T17:23:08.283Z,100957.28
2023-05-19T17:25:36.318Z,100941.56
2023-05-19T17:28:03.922Z,100947.16
2023-05-19T17:30:31.676Z,100936.44
2023-05-19T17:32:59.726Z,100942.41
2023-05-19T17:35:28.598Z,100946.78
2023-05-19T17:37:57.910Z,100952.31
2023-05-19T17:40:26.021Z,100959.66
2023-05-19T17:42:53.539Z,100923.50
2023-05-19T17:45:21.138Z,100962.69
2023-05-19T17:47:48.926Z,100926.53
2023-05-19T17:50:16.607Z,100969.44
2023-05-19T17:52:44.541Z,100972.28
2023-05-19T17:55:12.864Z,100930.69
2023-05-19T17:57:42.930Z,100930.16
2023-05-19T18:00:11.384Z,100974.47
2023-05-19T18:02:39.799Z,100970.19
2023-05-19T18:05:08.346Z,100978.66
2023-05-19T18:07:39.461Z,100983.31
2023-05-19T18:10:08.951Z,100986.19
2023-05-19T18:12:36.576Z,100993.19
2023-05-19T18:15:04.450Z,100984.91
2023-05-19T18:17:32.505Z,100980.28
2023-05-19T18:20:00.061Z,100987.62
2023-05-19T18:22:27.510Z,100985.69
2023-05-19T18:24:55.412Z,100990.34
2023-05-19T18:27:22.925Z,100995.69
2023-05-19T18:29:50.344Z,100994.00
2023-05-19T18:32:18.158Z,101004.84
2023-05-19T18:34:45.820Z,100998.22
2023-05-19T18:37:13.252Z,100995.41
2023-05-19T18:39:41.150Z,101006.06
2023-05-19T18:42:08.800Z,100993.75
2023-05-19T18:44:36.379Z,101006.06
2023-05-19T18:47:04.256Z,101001.06
2023-05-19T18:49:31.946Z,101006.09
2023-05-19T18:51:59.458Z,101005.00
2023-05-19T18:54:27.252Z,100999.84
2023-05-19T18:56:54.867Z,101001.50
2023-05-19T18:59:23.724Z,101003.22
2023-05-19T19:01:54.991Z,101010.69
2023-05-19T19:04:22.582Z,101006.56
2023-05-19T19:06:51.247Z,100999.91
2023-05-19T19:09:19.265Z,100972.19
2023-05-19T19:11:46.839Z,100965.75
2023-05-19T19:14:14.380Z,100999.78
2023-05-19T19:16:42.172Z,101014.09
2023-05-19T19:19:10.200Z,100982.56
2023-05-19T19:21:37.814Z,101017.59
2023-05-19T19:24:05.894Z,101029.75
2023-05-19T19:26:33.781Z,101038.22
2023-05-19T19:29:01.302Z,101037.41
2023-05-19T19:31:29.128Z,101037.88
2023-05-19T19:34:03.583Z,100993.37
2023-05-19T19:36:32.066Z,101043.87
2023-05-19T19:38:59.673Z,101040.22
2023-05-19T19:41:29.710Z,101044.38
2023-05-19T19:43:57.548Z,101039.72
2023-05-19T19:46:25.148Z,101046.19
2023-05-19T19:48:52.819Z,101038.88
2023-05-19T19:51:20.608Z,101047.13
2023-05-19T19:53:48.091Z,100997.94
2023-05-19T19:56:15.606Z,101004.09
2023-05-19T19:58:43.572Z,101045.78
2023-05-19T20:01:11.316Z,101041.47
2023-05-19T20:03:39.188Z,101047.91
2023-05-19T20:06:07.672Z,101052.75
2023-05-19T20:08:35.137Z,101046.41
2023-05-19T20:11:02.942Z,101026.97
2023-05-19T20:13:32.083Z,101046.72
2023-05-19T20:16:01.016Z,101039.72
2023-05-19T20:18:29.981Z,101053.34
2023-05-19T20:20:57.640Z,101050.84
2023-05-19T20:23:25.213Z,101011.41
2023-05-19T20:26:10.305Z,101046.47
2023-05-19T20:28:39.762Z,101044.47
2023-05-19T20:31:07.716Z,101036.31
2023-05-19T20:33:35.345Z,101038.47
2023-05-19T20:36:02.873Z,101034.97
2023-05-19T20:38:30.630Z,101011.03
2023-05-19T20:40:58.140Z,101021.00
2023-05-19T20:43:25.642Z,101033.22
2023-05-19T20:45:53.435Z,101031.91
2023-05-19T20:48:20.997Z,101033.03
2023-05-19T20:50:48.515Z,101026.91
2023-05-19T20:53:16.277Z,101021.91
2023-05-19T20:55:47.044Z,101016.16
2023-05-19T20:58:14.705Z,101025.56
2023-05-19T21:00:42.474Z,101020.28
2023-05-19T21:03:10.008Z,101028.03
2023-05-19T21:05:37.615Z,101023.22
2023-05-19T21:08:05.523Z,101013.09
2023-05-19T21:10:33.135Z,101027.19
2023-05-19T21:13:00.924Z,101018.03
2023-05-19T21:15:28.740Z,101032.25
2023-05-19T21:17:56.282Z,101029.47
2023-05-19T21:20:23.990Z,101034.38
2023-05-19T21:22:51.889Z,101030.69
2023-05-19T21:25:19.352Z,101028.03
2023-05-19T21:27:47.509Z,101032.12
2023-05-19T21:30:15.490Z,101025.50
2023-05-19T21:32:43.215Z,101024.06
2023-05-19T21:35:10.813Z,101024.56
2023-05-19T21:37:38.509Z,101015.53
2023-05-19T21:40:08.073Z,101019.50
2023-05-19T21:42:35.894Z,101009.25
2023-05-19T21:45:04.017Z,101008.84
2023-05-19T21:47:31.824Z,101007.75
2023-05-19T21:49:59.315Z,101006.53
2023-05-19T21:52:27.123Z,101007.06
2023-05-19T21:54:56.131Z,101002.63
2023-05-19T21:57:23.619Z,100997.75
2023-05-19T21:59:51.522Z,100992.87
2023-05-19T22:02:18.954Z,100955.06
2023-05-19T22:04:46.733Z,100992.38
2023-05-19T22:07:14.235Z,100986.13
2023-05-19T22:09:41.704Z,100980.38
2023-05-19T22:12:09.560Z,100927.75
2023-05-19T22:14:37.037Z,100968.06
2023-05-19T22:17:04.768Z,100969.06
2023-05-19T22:19:32.691Z,100933.47
2023-05-19T22:22:12.718Z,100980.53
2023-05-19T22:24:41.554Z,100979.56
2023-05-19T22:27:09.048Z,100985.66
2023-05-19T22:29:38.714Z,100982.28
2023-05-19T22:32:11.757Z,100978.75
2023-05-19T22:34:39.579Z,100976.19
2023-05-19T22:37:07.405Z,100980.06
2023-05-19T22:39:34.918Z,100977.53
2023-05-19T22:42:02.671Z,100972.97
2023-05-19T22:44:30.546Z,100967.47
2023-05-19T22:46:58.028Z,100927.91
2023-05-19T22:49:27.369Z,100969.41
2023-05-19T22:51:55.192Z,100977.22
2023-05-19T22:54:22.715Z,100932.00
2023-05-19T22:56:50.348Z,100976.25
2023-05-19T22:59:18.257Z,100974.06
2023-05-19T23:01:46.813Z,100967.62
2023-05-19T23:04:14.740Z,100964.28
2023-05-19T23:06:42.653Z,100963.78
2023-05-19T23:09:10.152Z,100957.84
2023-05-19T23:11:37.642Z,100955.22
2023-05-19T23:14:05.692Z,100952.28
2023-05-19T23:16:33.283Z,100947.88
2023-05-19T23:19:01.022Z,100934.56
2023-05-19T23:21:30.303Z,100936.62
2023-05-19T23:23:57.895Z,100934.94
2023-05-19T23:26:26.378Z,100927.28
2023-05-19T23:28:54.183Z,100929.69
2023-05-19T23:31:21.772Z,100928.87
2023-05-19T23:33:49.454Z,100922.22
2023-05-19T23:36:17.851Z,100875.62
2023-05-19T23:38:45.624Z,100920.69
2023-05-19T23:41:13.213Z,100918.81
2023-05-19T23:43:41.132Z,100914.13
2023-05-19T23:46:08.796Z,100909.53
2023-05-19T23:48:36.714Z,100916.47
2023-05-19T23:51:04.711Z,100918.16
2023-05-19T23:53:32.289Z,100876.53
2023-05-19T23:55:59.843Z,100924.53
2023-05-19T23:58:27.824Z,100879.88
